Time;durP1;ratioP1;P1;durP2;ratioP2;P2;SDS_P1;SDS_P2;PMS_P1;PMS_P2;Temp;Humidity;BMP_temperature;BMP_pressure;BME280_temperature;BME280_humidity;BME280_pressure;Samples;Min_cycle;Max_cycle;Signal;HPM_P1;HPM_P2
2023/10/18 00:00:35;;;;;;;11.60;9.10;;;;;21.00;100292.00;;;;2077906;28;20269;-66
2023/10/18 00:01:35;;;;;;;10.63;8.43;;;;;21.00;100286.00;;;;2070669;28;20214;-66
2023/10/18 00:02:36;;;;;;;10.47;8.87;;;;;21.00;100299.00;;;;2070806;28;20716;-66
2023/10/18 00:03:36;;;;;;;11.17;8.37;;;;;21.00;100290.00;;;;2058791;28;20694;-66
2023/10/18 00:04:38;;;;;;;10.00;8.40;;;;;21.00;100289.00;;;;2066088;28;20256;-66
2023/10/18 00:05:41;;;;;;;9.98;8.57;;;;;21.00;100292.00;;;;2067197;28;20726;-66
2023/10/18 00:06:41;;;;;;;11.05;8.10;;;;;21.00;100290.00;;;;2069377;28;20229;-66
2023/10/18 00:07:43;;;;;;;11.03;8.47;;;;;21.00;100286.00;;;;2070629;28;20672;-66
2023/10/18 00:08:46;;;;;;;10.32;8.73;;;;;21.00;100289.00;;;;2055970;28;20707;-66
2023/10/18 00:09:48;;;;;;;10.57;8.95;;;;;21.00;100285.00;;;;2064375;28;20231;-66
2023/10/18 00:10:53;;;;;;;11.15;8.40;;;;;21.00;100286.00;;;;2066827;28;20218;-66
2023/10/18 00:11:53;;;;;;;9.25;7.68;;;;;21.00;100285.00;;;;2070875;28;20686;-66
2023/10/18 00:12:55;;;;;;;10.32;8.40;;;;;21.00;100293.00;;;;2070164;28;20292;-66
2023/10/18 00:13:55;;;;;;;10.60;8.77;;;;;21.00;100281.00;;;;2057310;28;20224;-66
2023/10/18 00:14:57;;;;;;;9.00;7.63;;;;;21.00;100282.00;;;;2071235;28;20222;-66
2023/10/18 00:16:01;;;;;;;8.27;7.13;;;;;21.00;100270.00;;;;2066059;28;20301;-66
2023/10/18 00:17:01;;;;;;;8.40;7.50;;;;;21.00;100223.00;;;;2072435;28;20230;-66
2023/10/18 00:18:02;;;;;;;7.90;7.07;;;;;21.00;100269.00;;;;2061257;28;20649;-66
2023/10/18 00:19:02;;;;;;;8.87;7.13;;;;;20.90;100272.00;;;;2078970;28;20629;-66
2023/10/18 00:20:08;;;;;;;9.10;8.20;;;;;20.90;100274.00;;;;2078924;28;20213;-66
2023/10/18 00:21:08;;;;;;;8.60;7.22;;;;;20.90;100275.00;;;;2064786;28;20237;-66
2023/10/18 00:22:09;;;;;;;7.57;6.77;;;;;20.90;100268.00;;;;2080897;28;20266;-66
2023/10/18 00:23:10;;;;;;;7.73;6.27;;;;;20.90;100269.00;;;;2061989;28;20214;-66
2023/10/18 00:24:10;;;;;;;9.67;7.40;;;;;20.90;100265.00;;;;2062865;28;20207;-66
2023/10/18 00:25:11;;;;;;;7.90;6.67;;;;;20.90;100256.00;;;;2071660;28;20558;-66
2023/10/18 00:26:11;;;;;;;8.67;6.70;;;;;20.90;100267.00;;;;2072731;28;20602;-66
2023/10/18 00:27:12;;;;;;;7.67;6.87;;;;;20.90;100259.00;;;;2072594;28;20248;-66
2023/10/18 00:28:12;;;;;;;8.40;7.50;;;;;20.90;100264.00;;;;2054973;28;20262;-66
2023/10/18 00:29:13;;;;;;;8.57;7.67;;;;;20.90;100262.00;;;;2062820;28;20716;-66
2023/10/18 00:30:14;;;;;;;9.50;6.00;;;;;20.90;100255.00;;;;2063042;28;20685;-66
2023/10/18 00:31:18;;;;;;;7.37;6.53;;;;;20.90;100258.00;;;;2066076;28;20294;-66
2023/10/18 00:32:18;;;;;;;8.88;6.72;;;;;20.90;100264.00;;;;2071631;28;22277;-66
2023/10/18 00:33:19;;;;;;;7.30;6.60;;;;;20.90;100260.00;;;;2077416;28;20228;-66
2023/10/18 00:34:19;;;;;;;8.20;6.67;;;;;20.80;100255.00;;;;2080406;28;20229;-66
2023/10/18 00:35:20;;;;;;;7.50;6.30;;;;;20.80;100259.00;;;;2071382;28;20225;-66
2023/10/18 00:36:21;;;;;;;8.52;7.10;;;;;20.90;100267.00;;;;2072770;28;20218;-66
2023/10/18 00:37:21;;;;;;;7.20;6.10;;;;;20.70;100244.00;;;;2069283;28;20237;-66
2023/10/18 00:38:24;;;;;;;9.00;6.53;;;;;20.80;100265.00;;;;2063687;28;20748;-66
2023/10/18 00:39:27;;;;;;;7.80;6.30;;;;;20.80;100260.00;;;;2067651;28;20211;-66
2023/10/18 00:41:34;;;;;;;6.80;6.10;;;;;20.80;100258.00;;;;2071857;28;20218;-66
2023/10/18 00:42:36;;;;;;;7.00;6.10;;;;;20.80;100261.00;;;;2071409;28;20226;-66
2023/10/18 00:43:36;;;;;;;7.35;6.57;;;;;20.90;100254.00;;;;2067335;28;20297;-66
2023/10/18 00:44:37;;;;;;;8.53;6.17;;;;;20.90;100256.00;;;;2078540;28;20332;-66
2023/10/18 00:45:43;;;;;;;6.70;5.23;;;;;20.80;100263.00;;;;2074889;28;20621;-66
2023/10/18 00:46:44;;;;;;;7.50;5.90;;;;;20.80;100259.00;;;;2083804;28;20218;-66
2023/10/18 00:47:44;;;;;;;7.07;5.80;;;;;20.80;100250.00;;;;2075296;28;20260;-66
2023/10/18 00:48:44;;;;;;;7.70;6.43;;;;;20.80;100259.00;;;;2054012;28;20227;-66
2023/10/18 00:49:46;;;;;;;6.93;5.77;;;;;20.80;100259.00;;;;2071994;28;20272;-66
2023/10/18 00:50:52;;;;;;;6.07;5.45;;;;;20.80;100246.00;;;;2065697;28;20222;-66
2023/10/18 00:51:52;;;;;;;6.93;5.90;;;;;20.80;100257.00;;;;2074146;28;20216;-66
2023/10/18 00:52:52;;;;;;;6.37;5.70;;;;;20.80;100263.00;;;;2069713;28;20808;-66
2023/10/18 00:53:53;;;;;;;6.50;5.60;;;;;20.80;100251.00;;;;2057298;28;20218;-66
2023/10/18 00:54:53;;;;;;;7.80;5.70;;;;;20.80;100224.00;;;;2069842;28;20229;-66
2023/10/18 00:55:57;;;;;;;6.57;5.43;;;;;20.80;100254.00;;;;2070280;28;20261;-66
2023/10/18 00:56:58;;;;;;;6.97;5.28;;;;;20.80;100253.00;;;;2066860;28;20227;-66
2023/10/18 00:57:58;;;;;;;6.10;5.50;;;;;20.80;100250.00;;;;2069350;28;20218;-66
2023/10/18 00:58:59;;;;;;;5.57;5.00;;;;;20.80;100201.00;;;;2059988;28;20609;-66
2023/10/18 01:00:06;;;;;;;6.00;4.90;;;;;20.70;100247.00;;;;2071919;28;20241;-66
2023/10/18 01:01:10;;;;;;;5.50;5.00;;;;;20.80;100242.00;;;;2070754;28;20218;-66
2023/10/18 01:02:18;;;;;;;5.82;5.22;;;;;20.80;100249.00;;;;2072773;28;20232;-66
2023/10/18 01:03:28;;;;;;;6.30;5.30;;;;;20.80;100244.00;;;;2058401;28;20218;-66
2023/10/18 01:04:34;;;;;;;6.07;5.25;;;;;20.80;100240.00;;;;2072332;28;20225;-66
2023/10/18 01:05:35;;;;;;;6.40;5.13;;;;;20.80;100238.00;;;;2071514;28;20209;-66
2023/10/18 01:06:36;;;;;;;5.85;4.90;;;;;20.80;100236.00;;;;2072149;28;20230;-66
2023/10/18 01:07:37;;;;;;;5.60;5.00;;;;;20.70;100236.00;;;;2071445;28;20328;-66
2023/10/18 01:08:38;;;;;;;5.40;4.60;;;;;20.70;100231.00;;;;2062303;28;20621;-66
2023/10/18 01:09:44;;;;;;;5.47;4.97;;;;;20.70;100229.00;;;;2068764;28;20238;-66
2023/10/18 01:10:44;;;;;;;5.90;5.28;;;;;20.80;100238.00;;;;2069815;28;20355;-66
2023/10/18 01:11:46;;;;;;;6.23;5.40;;;;;20.70;100228.00;;;;2072704;28;20662;-66
2023/10/18 01:12:47;;;;;;;5.88;5.13;;;;;20.70;100231.00;;;;2069947;28;20262;-66
2023/10/18 01:13:48;;;;;;;5.32;4.82;;;;;20.70;100233.00;;;;2059916;28;20732;-66
2023/10/18 01:14:49;;;;;;;5.57;4.97;;;;;20.70;100237.00;;;;2070397;28;20239;-66
2023/10/18 01:15:50;;;;;;;8.35;5.18;;;;;20.70;100233.00;;;;2069290;28;20283;-66
2023/10/18 01:16:53;;;;;;;4.50;4.10;;;;;20.70;100237.00;;;;2069710;28;20289;-66
2023/10/18 01:17:54;;;;;;;7.43;4.95;;;;;20.70;100229.00;;;;2068021;28;20222;-66
2023/10/18 01:18:55;;;;;;;6.03;5.10;;;;;20.70;100230.00;;;;2062048;28;20293;-66
2023/10/18 01:19:57;;;;;;;5.05;4.38;;;;;20.70;100230.00;;;;2066171;28;20242;-66
2023/10/18 01:20:59;;;;;;;5.43;4.90;;;;;20.70;100227.00;;;;2066709;28;20219;-66
2023/10/18 01:22:00;;;;;;;5.00;4.45;;;;;20.70;100228.00;;;;2071720;28;20287;-66
2023/10/18 01:23:01;;;;;;;5.40;4.80;;;;;20.70;100225.00;;;;2065258;28;20227;-66
2023/10/18 01:24:01;;;;;;;5.88;4.60;;;;;20.70;100220.00;;;;2063644;28;20300;-66
2023/10/18 01:25:02;;;;;;;5.30;4.20;;;;;20.70;100222.00;;;;2055668;28;20208;-66
2023/10/18 01:26:04;;;;;;;5.18;4.68;;;;;20.60;100179.00;;;;2059878;28;20226;-66
2023/10/18 01:27:05;;;;;;;5.47;4.75;;;;;20.70;100216.00;;;;2069448;28;20263;-66
2023/10/18 01:28:05;;;;;;;4.90;3.93;;;;;20.70;100219.00;;;;2060979;28;20226;-66
2023/10/18 01:29:08;;;;;;;4.97;4.47;;;;;20.70;100216.00;;;;2071284;28;20461;-66
2023/10/18 01:30:09;;;;;;;5.82;4.88;;;;;20.70;100211.00;;;;2070968;28;20222;-66
2023/10/18 01:31:10;;;;;;;4.70;4.30;;;;;20.70;100222.00;;;;2063974;28;20241;-66
2023/10/18 01:32:10;;;;;;;5.50;4.53;;;;;20.60;100220.00;;;;2070690;28;20648;-66
2023/10/18 01:33:10;;;;;;;4.53;3.90;;;;;20.60;100217.00;;;;2055662;28;20273;-66
2023/10/18 01:34:11;;;;;;;6.10;4.97;;;;;20.70;100225.00;;;;2067478;28;20288;-66
2023/10/18 01:35:13;;;;;;;4.40;4.00;;;;;20.60;100215.00;;;;2061643;28;20228;-66
2023/10/18 01:36:17;;;;;;;4.97;4.10;;;;;20.60;100224.00;;;;2072538;28;20457;-66
2023/10/18 01:37:20;;;;;;;4.75;3.92;;;;;20.60;100223.00;;;;2067281;28;20348;-66
2023/10/18 01:38:25;;;;;;;4.45;4.05;;;;;20.60;100215.00;;;;2052550;28;20310;-66
2023/10/18 01:39:29;;;;;;;4.80;4.00;;;;;20.60;100213.00;;;;2070115;28;20218;-66
2023/10/18 01:40:41;;;;;;;4.10;3.70;;;;;20.60;100217.00;;;;2071398;28;20713;-66
2023/10/18 01:41:41;;;;;;;4.80;4.28;;;;;20.60;100217.00;;;;2070733;28;20573;-66
2023/10/18 01:42:43;;;;;;;4.80;4.00;;;;;20.60;100212.00;;;;2072506;28;20226;-66
2023/10/18 01:43:44;;;;;;;4.65;4.20;;;;;20.60;100216.00;;;;2059131;28;20233;-66
2023/10/18 01:44:45;;;;;;;4.33;3.77;;;;;20.60;100220.00;;;;2068084;28;20249;-66
2023/10/18 01:45:48;;;;;;;4.80;4.30;;;;;20.60;100216.00;;;;2081868;28;20384;-66
2023/10/18 01:46:49;;;;;;;5.55;4.30;;;;;20.60;100206.00;;;;2081902;28;20220;-66
2023/10/18 01:47:49;;;;;;;4.10;3.80;;;;;20.60;100203.00;;;;2068696;28;20693;-66
2023/10/18 01:48:55;;;;;;;5.30;4.23;;;;;20.60;100210.00;;;;2075274;28;20693;-66
2023/10/18 01:49:55;;;;;;;4.00;3.60;;;;;20.60;100203.00;;;;2074039;28;20752;-66
2023/10/18 01:50:56;;;;;;;6.00;4.10;;;;;20.60;100214.00;;;;2067821;28;20217;-66
2023/10/18 01:51:57;;;;;;;4.70;4.20;;;;;20.60;100203.00;;;;2082509;28;20218;-66
2023/10/18 01:53:00;;;;;;;3.90;3.60;;;;;20.60;100204.00;;;;2083548;28;20452;-66
2023/10/18 01:54:10;;;;;;;6.32;4.10;;;;;20.60;100201.00;;;;2061370;28;20659;-66
2023/10/18 01:55:12;;;;;;;4.20;3.75;;;;;20.60;100192.00;;;;2072284;28;24956;-66
2023/10/18 01:56:14;;;;;;;5.85;4.28;;;;;20.60;100196.00;;;;2070371;28;20273;-66
2023/10/18 01:57:15;;;;;;;4.10;3.70;;;;;20.60;100195.00;;;;2071153;28;20214;-66
2023/10/18 01:58:15;;;;;;;6.90;3.97;;;;;20.60;100192.00;;;;2058309;28;20296;-66
2023/10/18 01:59:17;;;;;;;4.07;3.67;;;;;20.60;100188.00;;;;2072050;28;20600;-66
2023/10/18 02:00:34;;;;;;;4.25;3.42;;;;;20.60;100184.00;;;;2067906;28;20218;-66
2023/10/18 02:01:34;;;;;;;4.20;3.80;;;;;20.60;100196.00;;;;2071200;28;20293;-66
2023/10/18 02:02:35;;;;;;;5.27;3.70;;;;;20.60;100188.00;;;;2070817;28;20422;-66
2023/10/18 02:03:36;;;;;;;4.40;3.77;;;;;20.60;100188.00;;;;2062685;28;20700;-66
2023/10/18 02:04:37;;;;;;;4.07;3.58;;;;;20.60;100190.00;;;;2068006;28;20305;-66
2023/10/18 02:05:43;;;;;;;4.53;3.47;;;;;20.60;100188.00;;;;2063957;28;20238;-66
2023/10/18 02:06:44;;;;;;;4.25;3.33;;;;;20.60;100188.00;;;;2069636;28;21260;-66
2023/10/18 02:07:47;;;;;;;4.33;3.80;;;;;20.50;100188.00;;;;2070267;28;20273;-66
2023/10/18 02:08:48;;;;;;;5.35;4.20;;;;;20.60;100196.00;;;;2069930;28;20294;-66
2023/10/18 02:09:48;;;;;;;4.10;3.70;;;;;20.50;100189.00;;;;2077196;28;20300;-66
2023/10/18 02:10:50;;;;;;;4.40;3.57;;;;;20.50;100194.00;;;;2073166;28;20605;-66
2023/10/18 02:11:50;;;;;;;5.15;4.18;;;;;20.60;100161.00;;;;2070624;28;20218;-66
2023/10/18 02:12:51;;;;;;;3.83;3.47;;;;;20.50;100195.00;;;;2071575;28;20892;-66
2023/10/18 02:13:51;;;;;;;3.63;3.33;;;;;20.50;100154.00;;;;2062590;28;20206;-66
2023/10/18 02:14:55;;;;;;;4.00;3.60;;;;;20.50;100183.00;;;;2069654;28;20741;-66
2023/10/18 02:15:57;;;;;;;5.20;3.70;;;;;20.50;100187.00;;;;2071480;28;20280;-66
2023/10/18 02:16:57;;;;;;;4.30;3.53;;;;;20.50;100176.00;;;;2070202;28;20241;-66
2023/10/18 02:17:58;;;;;;;4.93;3.30;;;;;20.50;100190.00;;;;2070327;28;20630;-66
2023/10/18 02:18:58;;;;;;;6.30;3.83;;;;;20.50;100181.00;;;;2059624;28;20211;-66
2023/10/18 02:20:00;;;;;;;4.43;3.40;;;;;20.50;100189.00;;;;2073586;28;20217;-66
2023/10/18 02:21:01;;;;;;;3.58;3.20;;;;;20.50;100193.00;;;;2077996;28;20213;-66
2023/10/18 02:22:01;;;;;;;3.40;3.10;;;;;20.50;100148.00;;;;2057871;28;20231;-66
2023/10/18 02:23:02;;;;;;;4.50;3.43;;;;;20.50;100181.00;;;;2072767;28;20457;-66
2023/10/18 02:24:04;;;;;;;4.25;3.85;;;;;20.50;100180.00;;;;2069539;28;20226;-66
2023/10/18 02:25:08;;;;;;;5.68;3.80;;;;;20.50;100181.00;;;;2061633;28;20238;-66
2023/10/18 02:27:28;;;;;;;6.55;3.83;;;;;20.50;100182.00;;;;2047845;28;20230;-66
2023/10/18 02:28:28;;;;;;;4.75;3.35;;;;;20.50;100176.00;;;;2052263;28;20229;-66
2023/10/18 02:29:34;;;;;;;4.30;3.90;;;;;20.50;100174.00;;;;2060899;28;20718;-66
2023/10/18 02:30:36;;;;;;;3.95;3.50;;;;;20.50;100175.00;;;;2063665;28;20219;-66
2023/10/18 02:31:36;;;;;;;3.60;3.20;;;;;20.50;100177.00;;;;2063176;28;21017;-66
2023/10/18 02:32:38;;;;;;;3.93;3.53;;;;;20.50;100180.00;;;;2065837;28;20224;-66
2023/10/18 02:33:42;;;;;;;3.70;3.40;;;;;20.50;100174.00;;;;2058470;28;20229;-66
2023/10/18 02:34:42;;;;;;;3.42;3.13;;;;;20.50;100177.00;;;;2064747;28;20203;-66
2023/10/18 02:35:43;;;;;;;4.03;3.50;;;;;20.50;100177.00;;;;2069513;28;20682;-66
2023/10/18 02:36:50;;;;;;;4.40;3.55;;;;;20.40;100181.00;;;;2066847;28;20305;-66
2023/10/18 02:37:51;;;;;;;4.75;3.70;;;;;20.50;100179.00;;;;2066113;28;20222;-66
2023/10/18 02:38:54;;;;;;;3.77;3.37;;;;;20.50;100177.00;;;;2062283;28;20245;-66
2023/10/18 02:40:07;;;;;;;3.72;3.28;;;;;20.40;100171.00;;;;2071144;28;20503;-66
2023/10/18 02:42:26;;;;;;;4.65;3.20;;;;;20.50;100168.00;;;;2071407;28;20250;-66
2023/10/18 02:43:29;;;;;;;5.17;3.50;;;;;20.40;100158.00;;;;2060335;28;20218;-66
2023/10/18 02:44:29;;;;;;;3.63;3.33;;;;;20.40;100160.00;;;;2079392;28;20222;-66
2023/10/18 02:45:30;;;;;;;3.73;3.43;;;;;20.40;100157.00;;;;2076722;28;20214;-66
2023/10/18 02:46:33;;;;;;;3.38;2.70;;;;;20.40;100150.00;;;;2072155;28;20268;-66
2023/10/18 02:47:33;;;;;;;5.07;3.50;;;;;20.40;100153.00;;;;2064877;28;20219;-66
2023/10/18 02:48:34;;;;;;;4.77;3.27;;;;;20.40;100110.00;;;;2056201;28;20321;-66
2023/10/18 02:49:34;;;;;;;3.87;2.90;;;;;20.40;100150.00;;;;2071171;28;20210;-66
2023/10/18 02:50:38;;;;;;;3.60;3.30;;;;;20.40;100150.00;;;;2067002;28;20215;-66
2023/10/18 02:51:40;;;;;;;3.70;3.30;;;;;20.40;100150.00;;;;2085209;28;20724;-66
2023/10/18 02:52:41;;;;;;;3.38;3.08;;;;;20.40;100142.00;;;;2070039;28;20206;-66
2023/10/18 02:53:42;;;;;;;3.25;2.95;;;;;20.40;100146.00;;;;2055624;28;20778;-66
2023/10/18 02:54:43;;;;;;;3.20;2.90;;;;;20.40;100136.00;;;;2070949;28;20213;-66
2023/10/18 02:55:49;;;;;;;3.90;3.07;;;;;20.40;100135.00;;;;2066820;28;21004;-66
2023/10/18 02:56:50;;;;;;;3.80;3.40;;;;;20.40;100144.00;;;;2071696;28;20464;-66
2023/10/18 02:57:52;;;;;;;4.20;3.27;;;;;20.40;100136.00;;;;2070540;28;20237;-66
2023/10/18 02:59:06;;;;;;;3.20;2.90;;;;;20.40;100137.00;;;;2060516;28;20229;-66
2023/10/18 03:00:13;;;;;;;3.72;3.10;;;;;20.40;100125.00;;;;2068589;28;20685;-66
2023/10/18 03:01:19;;;;;;;4.18;3.20;;;;;20.40;100135.00;;;;2071367;28;20222;-66
2023/10/18 03:02:24;;;;;;;3.53;3.22;;;;;20.40;100134.00;;;;2066346;28;20219;-66
2023/10/18 03:03:25;;;;;;;4.00;3.47;;;;;20.40;100132.00;;;;2057566;28;20292;-66
2023/10/18 03:04:29;;;;;;;4.47;3.17;;;;;20.40;100135.00;;;;2069454;28;20215;-66
2023/10/18 03:05:32;;;;;;;3.92;3.45;;;;;20.40;100136.00;;;;2071667;28;20218;-66
2023/10/18 03:06:33;;;;;;;3.40;3.10;;;;;20.40;100132.00;;;;2070925;28;20674;-66
2023/10/18 03:07:37;;;;;;;3.55;3.25;;;;;20.40;100120.00;;;;2064713;28;20211;-66
2023/10/18 03:08:37;;;;;;;3.47;2.88;;;;;20.40;100123.00;;;;2056433;28;20694;-66
2023/10/18 03:10:45;;;;;;;3.30;3.00;;;;;20.40;100116.00;;;;2071692;28;20218;-66
2023/10/18 03:11:45;;;;;;;3.55;3.25;;;;;20.40;100115.00;;;;2069583;28;20669;-66
2023/10/18 03:12:46;;;;;;;3.80;3.33;;;;;20.40;100115.00;;;;2072184;28;20213;-66
2023/10/18 03:13:48;;;;;;;3.57;3.20;;;;;20.30;100117.00;;;;2055669;28;20276;-66
2023/10/18 03:14:55;;;;;;;4.47;3.60;;;;;20.40;100109.00;;;;2060736;28;20215;-66
2023/10/18 03:18:25;;;;;;;3.35;3.05;;;;;20.30;100115.00;;;;2059526;28;20237;-66
2023/10/18 03:19:26;;;;;;;2.92;2.63;;;;;20.40;100111.00;;;;2069323;28;20273;-66
2023/10/18 03:20:26;;;;;;;3.20;2.90;;;;;20.30;100104.00;;;;2071963;28;20319;-66
2023/10/18 03:21:32;;;;;;;3.30;2.90;;;;;20.30;100105.00;;;;2065344;28;20356;-66
2023/10/18 03:22:32;;;;;;;5.38;2.80;;;;;20.40;100107.00;;;;2071376;28;20218;-66
2023/10/18 03:23:32;;;;;;;3.70;2.67;;;;;20.30;100106.00;;;;2058103;28;20215;-66
2023/10/18 03:24:36;;;;;;;3.23;2.83;;;;;20.30;100103.00;;;;2066444;28;20805;-66
2023/10/18 03:25:37;;;;;;;3.58;3.20;;;;;20.30;100098.00;;;;2070097;28;20713;-66
2023/10/18 03:26:37;;;;;;;3.40;3.10;;;;;20.30;100101.00;;;;2070424;28;20211;-66
2023/10/18 03:27:41;;;;;;;3.27;2.90;;;;;20.30;100107.00;;;;2069985;28;20298;-66
2023/10/18 03:28:43;;;;;;;5.90;3.05;;;;;20.30;100097.00;;;;2065955;28;20229;-66
2023/10/18 03:29:43;;;;;;;3.30;3.00;;;;;20.30;100099.00;;;;2061735;28;20604;-66
2023/10/18 03:30:46;;;;;;;3.30;2.60;;;;;20.30;100097.00;;;;2049890;28;20212;-66
2023/10/18 03:31:50;;;;;;;3.20;2.90;;;;;20.30;100100.00;;;;2065571;28;20609;-66
2023/10/18 03:32:51;;;;;;;3.10;2.85;;;;;20.30;100102.00;;;;2070907;28;20226;-66
2023/10/18 03:34:04;;;;;;;3.13;2.70;;;;;20.30;100097.00;;;;2061575;28;20225;-66
2023/10/18 03:35:09;;;;;;;4.10;3.40;;;;;20.30;100092.00;;;;2065801;28;20466;-66
2023/10/18 03:36:20;;;;;;;3.33;2.88;;;;;20.30;100100.00;;;;2069727;28;20678;-66
2023/10/18 03:37:26;;;;;;;3.30;3.00;;;;;20.30;100104.00;;;;2069728;28;20296;-66
2023/10/18 03:38:30;;;;;;;4.60;2.97;;;;;20.30;100102.00;;;;2061728;28;20226;-66
2023/10/18 03:39:30;;;;;;;3.90;3.25;;;;;20.30;100097.00;;;;2069971;28;20713;-66
2023/10/18 03:40:36;;;;;;;3.20;2.90;;;;;20.30;100085.00;;;;2064777;28;20222;-66
2023/10/18 03:41:40;;;;;;;2.95;2.65;;;;;20.30;100085.00;;;;2071150;28;20222;-66
2023/10/18 03:42:45;;;;;;;3.33;3.03;;;;;20.30;100081.00;;;;2066861;28;20237;-66
2023/10/18 03:43:48;;;;;;;3.42;3.13;;;;;20.30;100102.00;;;;2060189;28;20229;-66
2023/10/18 03:44:51;;;;;;;4.18;3.22;;;;;20.30;100083.00;;;;2066415;28;20288;-66
2023/10/18 03:46:13;;;;;;;2.83;2.63;;;;;20.30;100084.00;;;;2068847;28;20242;-66
2023/10/18 03:47:13;;;;;;;4.18;3.05;;;;;20.30;100082.00;;;;2065061;28;20222;-66
2023/10/18 03:48:39;;;;;;;3.00;2.73;;;;;20.30;100088.00;;;;2060112;28;20725;-66
2023/10/18 03:49:37;;;;;;;3.47;3.17;;;;;20.20;100079.00;;;;2065180;28;20218;-66
2023/10/18 03:50:40;;;;;;;3.70;3.00;;;;;20.30;100067.00;;;;2070109;28;20219;-66
2023/10/18 03:51:41;;;;;;;2.85;2.65;;;;;20.30;100066.00;;;;2067234;28;20279;-66
2023/10/18 03:52:41;;;;;;;6.50;2.80;;;;;20.30;100068.00;;;;2065099;28;20269;-66
2023/10/18 03:53:42;;;;;;;2.70;2.30;;;;;20.20;100070.00;;;;2062133;28;20311;-66
2023/10/18 03:55:45;;;;;;;3.05;2.85;;;;;20.20;100068.00;;;;2083614;28;20304;-66
2023/10/18 03:56:51;;;;;;;3.87;2.53;;;;;20.20;100073.00;;;;2077535;28;20205;-66
2023/10/18 03:57:54;;;;;;;3.15;2.85;;;;;20.20;100043.00;;;;2066793;28;20276;-66
2023/10/18 03:59:00;;;;;;;3.30;2.78;;;;;20.30;100064.00;;;;2056774;28;20298;-66
2023/10/18 04:00:28;;;;;;;3.45;2.67;;;;;20.20;100059.00;;;;2069487;28;20253;-66
2023/10/18 04:01:21;;;;;;;4.55;3.20;;;;;20.20;100057.00;;;;2065211;28;20224;-66
2023/10/18 04:03:29;;;;;;;3.50;2.90;;;;;20.20;100050.00;;;;2062065;28;20287;-66
2023/10/18 04:04:34;;;;;;;3.20;2.67;;;;;20.20;100053.00;;;;2063430;28;20226;-66
2023/10/18 04:05:42;;;;;;;3.22;2.92;;;;;20.20;100023.00;;;;2070855;28;20238;-66
2023/10/18 04:06:43;;;;;;;4.68;2.95;;;;;20.20;100049.00;;;;2063947;28;20218;-66
2023/10/18 04:07:43;;;;;;;4.83;3.03;;;;;20.20;100041.00;;;;2071703;28;20566;-66
2023/10/18 04:08:43;;;;;;;3.23;2.93;;;;;20.20;100042.00;;;;2059262;28;21031;-66
2023/10/18 04:09:53;;;;;;;2.70;2.50;;;;;20.20;100053.00;;;;2071058;28;20607;-66
2023/10/18 04:10:59;;;;;;;3.95;3.10;;;;;20.20;100049.00;;;;2069516;28;20978;-66
2023/10/18 04:12:00;;;;;;;2.70;2.17;;;;;20.20;100052.00;;;;2067057;28;20267;-66
2023/10/18 04:13:00;;;;;;;2.53;2.33;;;;;20.20;100042.00;;;;2067878;28;20277;-66
2023/10/18 04:14:00;;;;;;;4.23;2.80;;;;;20.20;100036.00;;;;2068035;28;20927;-66
2023/10/18 04:15:01;;;;;;;3.20;2.90;;;;;20.20;100040.00;;;;2081555;28;20228;-66
2023/10/18 04:16:10;;;;;;;3.30;2.95;;;;;20.20;100042.00;;;;2062993;28;20226;-66
2023/10/18 04:17:18;;;;;;;3.13;2.90;;;;;20.20;100042.00;;;;2082038;28;20735;-66
2023/10/18 04:18:29;;;;;;;3.08;2.75;;;;;20.20;100035.00;;;;2067125;28;20229;-66
2023/10/18 04:19:30;;;;;;;2.70;2.50;;;;;20.20;100044.00;;;;2071353;28;20226;-66
2023/10/18 04:20:33;;;;;;;3.20;2.90;;;;;20.20;100038.00;;;;2068430;28;20586;-66
2023/10/18 04:21:34;;;;;;;2.45;2.20;;;;;20.20;100030.00;;;;2069638;28;20218;-66
2023/10/18 04:22:36;;;;;;;2.60;2.40;;;;;20.20;100032.00;;;;2075641;28;20642;-66
2023/10/18 04:23:36;;;;;;;3.22;2.92;;;;;20.20;100026.00;;;;2061759;28;20548;-66
2023/10/18 04:24:39;;;;;;;2.87;2.50;;;;;20.20;100037.00;;;;2070708;28;20230;-66
2023/10/18 04:25:39;;;;;;;2.45;2.25;;;;;20.20;100030.00;;;;2066253;28;20221;-66
2023/10/18 04:26:40;;;;;;;2.80;2.40;;;;;20.20;100028.00;;;;2062489;28;20207;-66
2023/10/18 04:27:42;;;;;;;3.63;2.60;;;;;20.20;100032.00;;;;2066061;28;20269;-66
2023/10/18 04:28:43;;;;;;;2.78;2.50;;;;;20.20;100036.00;;;;2063620;28;20225;-66
2023/10/18 04:29:47;;;;;;;2.88;2.55;;;;;20.20;100035.00;;;;2084854;28;20211;-66
2023/10/18 04:30:51;;;;;;;2.72;2.47;;;;;20.20;100032.00;;;;2069951;28;20211;-66
2023/10/18 04:31:52;;;;;;;2.72;2.50;;;;;20.20;100029.00;;;;2071526;28;20214;-66
2023/10/18 04:34:18;;;;;;;2.67;2.47;;;;;20.20;100024.00;;;;2066557;28;20588;-67
2023/10/18 04:35:25;;;;;;;3.10;2.55;;;;;20.20;100022.00;;;;2063591;28;20230;-66
2023/10/18 04:36:27;;;;;;;3.05;2.45;;;;;20.20;100025.00;;;;2071316;28;20308;-66
2023/10/18 04:37:27;;;;;;;2.83;2.53;;;;;20.20;100000.00;;;;2065754;28;20226;-66
2023/10/18 04:38:30;;;;;;;3.10;2.80;;;;;20.10;99985.00;;;;2060338;28;20237;-66
2023/10/18 04:39:31;;;;;;;4.35;2.80;;;;;20.10;100019.00;;;;2066503;28;20271;-66
2023/10/18 04:40:34;;;;;;;4.20;2.90;;;;;20.10;100014.00;;;;2071221;28;20218;-66
2023/10/18 04:41:36;;;;;;;3.35;2.45;;;;;20.10;100017.00;;;;2063124;28;20223;-66
2023/10/18 04:42:38;;;;;;;2.60;2.40;;;;;20.20;100018.00;;;;2070245;28;20629;-66
2023/10/18 04:43:39;;;;;;;2.58;2.38;;;;;20.10;100013.00;;;;2061726;28;20297;-66
2023/10/18 04:44:40;;;;;;;5.40;2.60;;;;;20.20;100012.00;;;;2069697;28;20210;-66
2023/10/18 04:45:44;;;;;;;4.60;2.75;;;;;20.10;100006.00;;;;2066633;28;20454;-66
2023/10/18 04:46:48;;;;;;;2.63;2.42;;;;;20.10;99997.00;;;;2082635;28;20231;-66
2023/10/18 04:47:49;;;;;;;3.50;2.78;;;;;20.10;100002.00;;;;2069466;28;20278;-66
2023/10/18 04:50:04;;;;;;;3.30;2.50;;;;;20.10;100007.00;;;;2078660;28;20222;-66
2023/10/18 04:51:06;;;;;;;2.60;2.40;;;;;20.10;99994.00;;;;2066610;28;20221;-66
2023/10/18 04:52:16;;;;;;;2.90;2.60;;;;;20.10;100001.00;;;;2068908;28;20226;-66
2023/10/18 04:53:23;;;;;;;3.67;2.30;;;;;20.10;99996.00;;;;2059869;28;20210;-66
2023/10/18 04:54:37;;;;;;;4.82;2.45;;;;;20.10;99995.00;;;;2068050;28;20213;-66
2023/10/18 04:55:46;;;;;;;3.20;2.70;;;;;20.10;99994.00;;;;2063058;28;20226;-66
2023/10/18 04:56:46;;;;;;;3.78;2.72;;;;;20.10;99996.00;;;;2069869;28;20216;-66
2023/10/18 04:57:47;;;;;;;3.90;2.60;;;;;20.10;99987.00;;;;2085329;28;20201;-66
2023/10/18 04:58:47;;;;;;;2.90;2.23;;;;;20.10;99990.00;;;;2070151;28;20333;-66
2023/10/18 04:59:52;;;;;;;3.50;2.10;;;;;20.10;99986.00;;;;2069866;28;20210;-66
2023/10/18 05:00:57;;;;;;;3.55;2.70;;;;;20.10;99984.00;;;;2062864;28;20762;-66
2023/10/18 05:01:57;;;;;;;3.03;2.20;;;;;20.10;99993.00;;;;2067875;28;20207;-66
2023/10/18 05:02:58;;;;;;;3.30;2.80;;;;;20.10;99984.00;;;;2065975;28;20202;-66
2023/10/18 05:04:02;;;;;;;3.63;2.20;;;;;20.10;99961.00;;;;2061959;28;20222;-66
2023/10/18 05:05:06;;;;;;;2.90;2.38;;;;;20.20;99984.00;;;;2071114;28;20222;-66
2023/10/18 05:06:06;;;;;;;3.53;2.65;;;;;20.20;99983.00;;;;2071391;28;20584;-66
2023/10/18 05:08:16;;;;;;;3.75;2.38;;;;;20.20;99984.00;;;;2053538;28;20226;-66
2023/10/18 05:09:18;;;;;;;3.75;2.30;;;;;20.20;99976.00;;;;2080223;28;20217;-66
2023/10/18 05:10:19;;;;;;;4.15;2.80;;;;;20.20;99991.00;;;;2071279;28;20766;-66
2023/10/18 05:11:22;;;;;;;2.85;2.40;;;;;20.30;99987.00;;;;2072098;28;20257;-66
2023/10/18 05:13:36;;;;;;;4.15;2.58;;;;;20.30;99984.00;;;;2059452;28;20221;-66
2023/10/18 05:14:42;;;;;;;3.85;2.40;;;;;20.30;99975.00;;;;2081142;28;20304;-66
2023/10/18 05:15:43;;;;;;;2.58;2.35;;;;;20.30;99973.00;;;;2070890;28;20306;-66
2023/10/18 05:16:44;;;;;;;2.50;2.20;;;;;20.40;99981.00;;;;2066434;28;20310;-66
2023/10/18 05:17:45;;;;;;;3.40;2.80;;;;;20.40;99976.00;;;;2069866;28;20221;-66
2023/10/18 05:18:45;;;;;;;2.70;2.50;;;;;20.40;99982.00;;;;2061520;28;20619;-66
2023/10/18 05:19:47;;;;;;;2.83;2.17;;;;;20.40;99956.00;;;;2067155;28;20694;-66
2023/10/18 05:20:55;;;;;;;3.33;2.47;;;;;20.40;99970.00;;;;2065922;28;20722;-66
2023/10/18 05:21:55;;;;;;;2.22;2.00;;;;;20.40;99974.00;;;;2072558;28;20288;-66
2023/10/18 05:23:04;;;;;;;2.10;1.90;;;;;20.40;99977.00;;;;2069428;28;20206;-66
2023/10/18 05:24:05;;;;;;;3.60;2.25;;;;;20.40;99966.00;;;;2069435;28;20229;-66